sensor_id;sensor_type;location;lat;lon;timestamp;pressure;altitude;pressure_sealevel;temperature;humidity
75188;BME280;63762;51.334;22.108;2023-04-24T00:02:29;100939.89;;;13.63;50.81
75188;BME280;63762;51.334;22.108;2023-04-24T00:12:37;100936.97;;;13.45;51.02
75188;BME280;63762;51.334;22.108;2023-04-24T00:22:43;100932.06;;;13.29;51.63
75188;BME280;63762;51.334;22.108;2023-04-24T00:32:51;100905.84;;;13.20;51.99
75188;BME280;63762;51.334;22.108;2023-04-24T00:42:58;100908.64;;;13.09;51.89
75188;BME280;63762;51.334;22.108;2023-04-24T00:53:05;100911.18;;;12.90;52.64
75188;BME280;63762;51.334;22.108;2023-04-24T01:03:13;100902.70;;;12.74;53.14
75188;BME280;63762;51.334;22.108;2023-04-24T01:13:20;100901.63;;;12.66;53.18
75188;BME280;63762;51.334;22.108;2023-04-24T01:23:26;100893.97;;;12.50;53.85
75188;BME280;63762;51.334;22.108;2023-04-24T01:33:33;100898.91;;;12.45;53.76
75188;BME280;63762;51.334;22.108;2023-04-24T01:43:41;100896.73;;;12.39;54.09
75188;BME280;63762;51.334;22.108;2023-04-24T01:53:48;100893.86;;;12.20;54.67
75188;BME280;63762;51.334;22.108;2023-04-24T02:03:55;100885.08;;;12.07;54.95
75188;BME280;63762;51.334;22.108;2023-04-24T02:14:02;100875.05;;;11.98;55.00
75188;BME280;63762;51.334;22.108;2023-04-24T02:24:09;100864.27;;;11.98;55.04
75188;BME280;63762;51.334;22.108;2023-04-24T02:34:16;100854.23;;;11.89;55.38
75188;BME280;63762;51.334;22.108;2023-04-24T02:44:24;100855.78;;;11.71;55.76
75188;BME280;63762;51.334;22.108;2023-04-24T02:54:30;100848.68;;;11.70;55.81
75188;BME280;63762;51.334;22.108;2023-04-24T03:04:38;100857.61;;;11.60;56.06
75188;BME280;63762;51.334;22.108;2023-04-24T03:14:45;100845.50;;;11.65;55.75
75188;BME280;63762;51.334;22.108;2023-04-24T03:24:52;100862.79;;;11.63;55.95
75188;BME280;63762;51.334;22.108;2023-04-24T03:34:59;100850.40;;;11.49;56.25
75188;BME280;63762;51.334;22.108;2023-04-24T03:45:08;100856.64;;;11.38;56.80
75188;BME280;63762;51.334;22.108;2023-04-24T03:55:13;100853.85;;;11.29;57.28
75188;BME280;63762;51.334;22.108;2023-04-24T04:05:20;100856.06;;;11.13;57.68
75188;BME280;63762;51.334;22.108;2023-04-24T04:15:27;100854.23;;;11.13;57.76
75188;BME280;63762;51.334;22.108;2023-04-24T04:25:35;100857.39;;;11.18;57.78
75188;BME280;63762;51.334;22.108;2023-04-24T04:35:42;100856.77;;;11.15;58.20
75188;BME280;63762;51.334;22.108;2023-04-24T04:45:50;100860.70;;;11.11;58.46
75188;BME280;63762;51.334;22.108;2023-04-24T04:55:56;100860.95;;;11.19;58.90
75188;BME280;63762;51.334;22.108;2023-04-24T05:06:04;100857.63;;;11.38;58.54
75188;BME280;63762;51.334;22.108;2023-04-24T05:16:10;100865.07;;;11.56;58.76
75188;BME280;63762;51.334;22.108;2023-04-24T05:26:17;100862.98;;;11.82;58.42
75188;BME280;63762;51.334;22.108;2023-04-24T05:36:25;100853.40;;;12.20;58.02
75188;BME280;63762;51.334;22.108;2023-04-24T05:46:32;100851.26;;;12.55;57.13
75188;BME280;63762;51.334;22.108;2023-04-24T05:56:39;100839.20;;;13.00;55.87
75188;BME280;63762;51.334;22.108;2023-04-24T06:06:46;100846.81;;;13.46;55.59
75188;BME280;63762;51.334;22.108;2023-04-24T06:16:55;100842.64;;;14.01;54.41
75188;BME280;63762;51.334;22.108;2023-04-24T06:27:00;100842.23;;;14.53;53.93
75188;BME280;63762;51.334;22.108;2023-04-24T06:37:07;100824.59;;;15.04;50.64
75188;BME280;63762;51.334;22.108;2023-04-24T06:47:15;100833.24;;;15.54;49.02
75188;BME280;63762;51.334;22.108;2023-04-24T06:57:22;100822.91;;;16.02;48.91
75188;BME280;63762;51.334;22.108;2023-04-24T07:07:29;100829.59;;;16.43;47.18
75188;BME280;63762;51.334;22.108;2023-04-24T07:17:36;100830.23;;;17.05;45.78
75188;BME280;63762;51.334;22.108;2023-04-24T07:27:43;100814.18;;;17.45;43.47
75188;BME280;63762;51.334;22.108;2023-04-24T07:37:50;100815.65;;;17.73;43.68
75188;BME280;63762;51.334;22.108;2023-04-24T07:47:57;100825.23;;;17.94;43.28
75188;BME280;63762;51.334;22.108;2023-04-24T07:58:04;100813.71;;;18.32;42.92
75188;BME280;63762;51.334;22.108;2023-04-24T08:08:11;100816.88;;;19.07;43.35
75188;BME280;63762;51.334;22.108;2023-04-24T08:18:19;100802.12;;;19.48;39.38
75188;BME280;63762;51.334;22.108;2023-04-24T08:28:26;100806.88;;;19.85;38.55
75188;BME280;63762;51.334;22.108;2023-04-24T08:38:33;100802.64;;;20.36;38.92
75188;BME280;63762;51.334;22.108;2023-04-24T08:48:40;100805.65;;;20.63;37.46
75188;BME280;63762;51.334;22.108;2023-04-24T08:58:47;100794.99;;;21.05;37.84
75188;BME280;63762;51.334;22.108;2023-04-24T09:08:54;100789.52;;;21.34;37.50
75188;BME280;63762;51.334;22.108;2023-04-24T09:19:01;100791.03;;;21.80;37.20
75188;BME280;63762;51.334;22.108;2023-04-24T09:29:14;100778.50;;;21.92;34.96
75188;BME280;63762;51.334;22.108;2023-04-24T09:39:17;100769.03;;;22.52;35.83
75188;BME280;63762;51.334;22.108;2023-04-24T09:49:27;100766.22;;;23.00;34.83
75188;BME280;63762;51.334;22.108;2023-04-24T09:59:30;100755.48;;;23.33;32.46
75188;BME280;63762;51.334;22.108;2023-04-24T10:09:37;100737.65;;;23.63;32.21
75188;BME280;63762;51.334;22.108;2023-04-24T10:19:45;100744.66;;;23.72;29.92
75188;BME280;63762;51.334;22.108;2023-04-24T10:29:53;100728.69;;;23.95;28.62
75188;BME280;63762;51.334;22.108;2023-04-24T10:39:58;100709.41;;;23.88;27.63
75188;BME280;63762;51.334;22.108;2023-04-24T10:50:11;100715.80;;;24.15;27.42
75188;BME280;63762;51.334;22.108;2023-04-24T11:00:15;100709.08;;;24.31;27.14
75188;BME280;63762;51.334;22.108;2023-04-24T11:10:26;100699.52;;;24.53;27.28
75188;BME280;63762;51.334;22.108;2023-04-24T11:20:27;100695.91;;;24.91;27.03
75188;BME280;63762;51.334;22.108;2023-04-24T11:33:43;100703.66;;;25.33;25.53
75188;BME280;63762;51.334;22.108;2023-04-24T11:43:50;100701.52;;;25.22;24.29
75188;BME280;63762;51.334;22.108;2023-04-24T11:53:56;100681.43;;;25.15;24.58
75188;BME280;63762;51.334;22.108;2023-04-24T12:04:04;100679.95;;;25.19;23.77
75188;BME280;63762;51.334;22.108;2023-04-24T12:14:11;100670.74;;;25.45;24.67
75188;BME280;63762;51.334;22.108;2023-04-24T12:24:18;100655.24;;;25.50;24.03
75188;BME280;63762;51.334;22.108;2023-04-24T12:34:26;100641.94;;;25.78;24.45
75188;BME280;63762;51.334;22.108;2023-04-24T12:44:33;100615.61;;;26.14;22.12
75188;BME280;63762;51.334;22.108;2023-04-24T12:54:40;100625.74;;;26.20;22.40
75188;BME280;63762;51.334;22.108;2023-04-24T13:04:47;100606.18;;;26.46;21.55
75188;BME280;63762;51.334;22.108;2023-04-24T13:14:53;100584.15;;;26.82;22.31
75188;BME280;63762;51.334;22.108;2023-04-24T13:25:01;100578.09;;;26.31;21.58
75188;BME280;63762;51.334;22.108;2023-04-24T13:35:08;100569.15;;;25.86;21.00
75188;BME280;63762;51.334;22.108;2023-04-24T13:45:15;100568.58;;;25.77;23.50
75188;BME280;63762;51.334;22.108;2023-04-24T13:55:22;100558.67;;;25.70;22.06
75188;BME280;63762;51.334;22.108;2023-04-24T14:05:29;100542.80;;;25.34;22.57
75188;BME280;63762;51.334;22.108;2023-04-24T14:15:36;100532.64;;;25.35;22.37
75188;BME280;63762;51.334;22.108;2023-04-24T14:25:43;100527.44;;;24.63;22.34
75188;BME280;63762;51.334;22.108;2023-04-24T14:35:51;100528.84;;;23.89;23.39
75188;BME280;63762;51.334;22.108;2023-04-24T14:45:57;100522.50;;;23.43;24.07
75188;BME280;63762;51.334;22.108;2023-04-24T14:56:05;100510.69;;;23.62;27.32
75188;BME280;63762;51.334;22.108;2023-04-24T15:06:12;100517.66;;;23.84;28.07
75188;BME280;63762;51.334;22.108;2023-04-24T15:16:19;100503.69;;;23.92;28.11
75188;BME280;63762;51.334;22.108;2023-04-24T15:26:26;100497.14;;;23.54;28.55
75188;BME280;63762;51.334;22.108;2023-04-24T15:36:33;100485.69;;;23.18;28.75
75188;BME280;63762;51.334;22.108;2023-04-24T15:46:40;100477.30;;;23.26;28.16
75188;BME280;63762;51.334;22.108;2023-04-24T15:56:49;100479.62;;;23.61;27.52
75188;BME280;63762;51.334;22.108;2023-04-24T16:06:54;100475.18;;;23.73;27.28
75188;BME280;63762;51.334;22.108;2023-04-24T16:17:02;100480.38;;;24.27;27.76
75188;BME280;63762;51.334;22.108;2023-04-24T16:27:09;100475.20;;;25.63;26.59
75188;BME280;63762;51.334;22.108;2023-04-24T16:37:16;100465.73;;;25.21;26.53
75188;BME280;63762;51.334;22.108;2023-04-24T16:47:23;100467.14;;;23.98;28.62
75188;BME280;63762;51.334;22.108;2023-04-24T16:57:30;100467.71;;;23.09;29.79
75188;BME280;63762;51.334;22.108;2023-04-24T17:07:37;100479.52;;;22.43;30.52
75188;BME280;63762;51.334;22.108;2023-04-24T17:17:44;100464.76;;;22.03;31.14
75188;BME280;63762;51.334;22.108;2023-04-24T17:27:51;100488.25;;;21.63;32.48
75188;BME280;63762;51.334;22.108;2023-04-24T17:37:59;100507.35;;;21.29;34.76
75188;BME280;63762;51.334;22.108;2023-04-24T17:48:06;100513.40;;;20.89;35.10
75188;BME280;63762;51.334;22.108;2023-04-24T17:58:13;100523.41;;;20.47;35.17
75188;BME280;63762;51.334;22.108;2023-04-24T18:08:20;100528.34;;;20.22;34.96
75188;BME280;63762;51.334;22.108;2023-04-24T18:18:27;100538.80;;;19.96;35.30
75188;BME280;63762;51.334;22.108;2023-04-24T18:28:34;100544.98;;;19.61;35.61
75188;BME280;63762;51.334;22.108;2023-04-24T18:38:42;100549.61;;;19.07;36.81
75188;BME280;63762;51.334;22.108;2023-04-24T18:48:48;100542.29;;;18.47;37.57
75188;BME280;63762;51.334;22.108;2023-04-24T18:58:55;100538.45;;;18.64;37.96
75188;BME280;63762;51.334;22.108;2023-04-24T19:09:03;100552.61;;;18.13;40.85
75188;BME280;63762;51.334;22.108;2023-04-24T19:19:12;100545.77;;;18.17;42.70
75188;BME280;63762;51.334;22.108;2023-04-24T19:29:17;100586.87;;;17.67;53.02
75188;BME280;63762;51.334;22.108;2023-04-24T19:39:24;100569.48;;;15.34;60.42
75188;BME280;63762;51.334;22.108;2023-04-24T19:49:31;100566.89;;;14.36;64.52
75188;BME280;63762;51.334;22.108;2023-04-24T19:59:38;100581.29;;;13.81;65.63
75188;BME280;63762;51.334;22.108;2023-04-24T20:09:45;100579.23;;;14.02;67.68
75188;BME280;63762;51.334;22.108;2023-04-24T20:19:53;100602.44;;;14.50;67.45
75188;BME280;63762;51.334;22.108;2023-04-24T20:30:00;100598.12;;;14.57;66.96
75188;BME280;63762;51.334;22.108;2023-04-24T20:40:08;100592.30;;;14.16;69.65
75188;BME280;63762;51.334;22.108;2023-04-24T20:50:14;100577.91;;;13.60;71.67
75188;BME280;63762;51.334;22.108;2023-04-24T21:00:22;100546.10;;;13.25;73.01
75188;BME280;63762;51.334;22.108;2023-04-24T21:10:28;100578.48;;;13.63;73.30
75188;BME280;63762;51.334;22.108;2023-04-24T21:20:35;100581.18;;;14.19;72.44
75188;BME280;63762;51.334;22.108;2023-04-24T21:30:43;100579.91;;;14.50;72.31
75188;BME280;63762;51.334;22.108;2023-04-24T21:40:51;100578.72;;;14.62;72.50
75188;BME280;63762;51.334;22.108;2023-04-24T21:50:57;100570.06;;;14.76;71.20
75188;BME280;63762;51.334;22.108;2023-04-24T22:01:04;100569.99;;;14.68;71.46
75188;BME280;63762;51.334;22.108;2023-04-24T22:11:11;100561.07;;;14.58;70.43
75188;BME280;63762;51.334;22.108;2023-04-24T22:21:19;100552.50;;;14.62;71.14
75188;BME280;63762;51.334;22.108;2023-04-24T22:31:25;100542.20;;;14.66;71.13
75188;BME280;63762;51.334;22.108;2023-04-24T22:41:33;100537.80;;;14.38;72.34
75188;BME280;63762;51.334;22.108;2023-04-24T22:51:39;100532.21;;;14.12;73.06
75188;BME280;63762;51.334;22.108;2023-04-24T23:01:47;100517.37;;;14.16;71.98
75188;BME280;63762;51.334;22.108;2023-04-24T23:11:54;100517.67;;;14.23;72.07
75188;BME280;63762;51.334;22.108;2023-04-24T23:22:01;100499.82;;;14.30;72.18
75188;BME280;63762;51.334;22.108;2023-04-24T23:32:08;100493.99;;;14.25;71.50
75188;BME280;63762;51.334;22.108;2023-04-24T23:42:16;100490.31;;;14.16;71.02
75188;BME280;63762;51.334;22.108;2023-04-24T23:52:22;100476.80;;;13.89;70.98
